createdAt,value
2018-02-08T00:05:26.542Z,95288.81
2018-02-08T00:07:08.085Z,95304.68
2018-02-08T00:13:33.864Z,95137.56
2018-02-08T00:19:08.079Z,94943.97
2018-02-08T00:24:31.781Z,94959.89
2018-02-08T00:26:08.744Z,94971.39
2018-02-08T00:27:48.196Z,95007.41
2018-02-08T00:29:25.276Z,95096.50
2018-02-08T00:31:02.646Z,95163.21
2018-02-08T00:32:39.115Z,95202.69
2018-02-08T00:34:16.658Z,95240.88
2018-02-08T00:35:54.185Z,95218.12
2018-02-08T00:37:31.492Z,95271.29
2018-02-08T00:39:08.487Z,95322.71
2018-02-08T00:40:45.450Z,95360.11
2018-02-08T00:42:22.444Z,95349.77
2018-02-08T00:43:58.902Z,95342.42
2018-02-08T00:45:36.143Z,95358.69
2018-02-08T00:47:14.359Z,95371.14
2018-02-08T00:48:51.975Z,95378.48
2018-02-08T00:50:29.336Z,95400.75
2018-02-08T00:52:06.412Z,95440.66
2018-02-08T00:53:43.837Z,95454.48
2018-02-08T00:55:20.865Z,95488.41
2018-02-08T00:56:57.900Z,95489.30
2018-02-08T00:58:34.979Z,95494.80
2018-02-08T01:00:16.707Z,95489.68
2018-02-08T01:08:19.521Z,95548.44
2018-02-08T01:09:56.641Z,95560.19
2018-02-08T01:11:34.061Z,95558.72
2018-02-08T01:13:11.031Z,95551.09
2018-02-08T01:14:48.391Z,95557.56
2018-02-08T01:16:24.863Z,95547.63
2018-02-08T01:18:01.218Z,95597.95
2018-02-08T01:19:38.167Z,95632.68
2018-02-08T01:21:15.165Z,95625.79
2018-02-08T01:22:51.489Z,95587.25
2018-02-08T01:24:28.625Z,95497.42
2018-02-08T01:32:42.106Z,95547.17
2018-02-08T01:45:55.417Z,95602.98
2018-02-08T01:47:32.380Z,95604.30
2018-02-08T01:49:08.822Z,95560.49
2018-02-08T01:50:46.528Z,95561.84
2018-02-08T01:52:23.770Z,95538.97
2018-02-08T01:54:00.925Z,95530.81
2018-02-08T01:55:38.350Z,95575.20
2018-02-08T01:57:16.925Z,95578.20
2018-02-08T01:58:55.093Z,95600.41
2018-02-08T02:00:32.323Z,95617.23
2018-02-08T02:02:09.415Z,95645.55
2018-02-08T02:03:46.949Z,95640.88
2018-02-08T02:05:25.716Z,95625.83
2018-02-08T02:07:02.679Z,95630.14
2018-02-08T02:08:39.204Z,95652.05
2018-02-08T02:10:16.332Z,95634.92
2018-02-08T02:11:53.591Z,95629.72
2018-02-08T02:13:30.189Z,95615.12
2018-02-08T02:15:07.931Z,95615.55
2018-02-08T02:16:45.507Z,95602.61
2018-02-08T02:18:22.314Z,95584.55
2018-02-08T02:19:59.575Z,95576.42
2018-02-08T02:23:25.953Z,95559.27
2018-02-08T02:32:17.179Z,95431.25
2018-02-08T02:33:54.671Z,95427.78
2018-02-08T02:35:30.928Z,95435.94
2018-02-08T02:37:07.188Z,95449.29
2018-02-08T02:40:38.431Z,95387.06
2018-02-08T02:42:21.159Z,95387.02
2018-02-08T02:46:42.203Z,95327.44
2018-02-08T02:48:18.532Z,95329.59
2018-02-08T02:49:55.697Z,95349.27
2018-02-08T02:51:32.056Z,95404.33
2018-02-08T02:53:09.534Z,95413.34
2018-02-08T02:54:45.956Z,95367.30
2018-02-08T02:56:22.293Z,95333.98
2018-02-08T02:58:02.417Z,95343.02
2018-02-08T02:59:39.936Z,95344.58
2018-02-08T03:01:16.313Z,95321.91
2018-02-08T03:02:52.704Z,95305.99
2018-02-08T03:04:29.033Z,95191.59
2018-02-08T03:06:05.441Z,95188.98
2018-02-08T03:07:42.954Z,95177.09
2018-02-08T03:09:19.275Z,95145.83
2018-02-08T03:10:55.822Z,95069.99
2018-02-08T03:12:33.960Z,95054.56
2018-02-08T03:14:10.461Z,94999.28
2018-02-08T03:15:46.735Z,95001.42
2018-02-08T03:17:23.165Z,95031.05
2018-02-08T03:18:59.961Z,95069.15
2018-02-08T03:20:36.421Z,95132.14
2018-02-08T03:22:13.302Z,95146.55
2018-02-08T03:23:50.443Z,95219.06
2018-02-08T03:25:26.840Z,95331.88
2018-02-08T03:27:03.714Z,95375.99
2018-02-08T03:28:40.604Z,95458.70
2018-02-08T03:30:17.173Z,95493.19
2018-02-08T03:31:53.638Z,95498.27
2018-02-08T03:33:30.021Z,95536.86
2018-02-08T03:35:06.708Z,95551.90
2018-02-08T03:36:43.112Z,95551.52
2018-02-08T03:38:19.441Z,95536.81
2018-02-08T03:39:55.854Z,95480.26
2018-02-08T03:41:32.232Z,95425.25
2018-02-08T03:44:40.106Z,95402.48
2018-02-08T03:46:16.764Z,95327.02
2018-02-08T03:47:53.048Z,95202.73
2018-02-08T03:49:46.608Z,95194.59
2018-02-08T03:51:28.497Z,95156.04
2018-02-08T03:56:47.910Z,95177.88
2018-02-08T03:58:24.347Z,95198.42
2018-02-08T04:00:00.912Z,95248.55
2018-02-08T04:01:37.978Z,95317.26
2018-02-08T04:03:14.277Z,95384.48
2018-02-08T04:04:51.228Z,95391.38
2018-02-08T04:06:27.488Z,95434.75
2018-02-08T04:08:04.215Z,95410.67
2018-02-08T04:17:41.180Z,94906.78
2018-02-08T04:19:17.448Z,94869.66
2018-02-08T04:20:54.894Z,94836.66
2018-02-08T04:22:31.398Z,94848.74
2018-02-08T04:24:08.419Z,94862.38
2018-02-08T04:25:45.247Z,94888.44
2018-02-08T04:27:22.103Z,94891.14
2018-02-08T04:28:58.412Z,94882.95
2018-02-08T04:30:35.171Z,94846.22
2018-02-08T04:32:17.325Z,94941.11
2018-02-08T04:36:21.200Z,95072.01
2018-02-08T04:37:57.563Z,95036.95
2018-02-08T04:41:53.719Z,94998.39
2018-02-08T04:44:20.194Z,94861.99
2018-02-08T04:47:08.922Z,94873.53
2018-02-08T04:48:46.186Z,94865.32
2018-02-08T04:50:23.733Z,94831.52
2018-02-08T04:52:01.123Z,94844.73
2018-02-08T04:53:37.543Z,94760.58
2018-02-08T04:55:14.801Z,94724.80
2018-02-08T04:56:53.615Z,94730.27
2018-02-08T04:58:32.057Z,94708.02
2018-02-08T05:00:09.141Z,94651.20
2018-02-08T05:01:45.583Z,94621.70
2018-02-08T05:08:33.891Z,94355.48
2018-02-08T05:14:49.839Z,94043.91
2018-02-08T05:23:01.199Z,93947.42
2018-02-08T05:24:37.897Z,94011.99
2018-02-08T05:26:14.261Z,94045.58
2018-02-08T05:27:51.105Z,94071.12
2018-02-08T05:29:44.173Z,94078.74
2018-02-08T05:37:10.028Z,94034.90
2018-02-08T05:41:10.128Z,94222.10
2018-02-08T05:42:47.178Z,94273.73
2018-02-08T05:44:23.987Z,94272.34
2018-02-08T05:46:00.618Z,94273.27
2018-02-08T05:47:37.020Z,94283.95
2018-02-08T05:49:13.342Z,94266.47
2018-02-08T05:50:50.955Z,94283.91
2018-02-08T05:52:27.251Z,94248.95
2018-02-08T05:54:03.692Z,94128.91
2018-02-08T05:55:40.116Z,94112.27
2018-02-08T05:57:16.815Z,94091.51
2018-02-08T05:58:56.315Z,94103.78
2018-02-08T06:00:44.347Z,94064.66
2018-02-08T06:12:01.688Z,93869.16
2018-02-08T06:13:38.063Z,93861.82
2018-02-08T06:15:17.341Z,93821.52
2018-02-08T06:16:54.583Z,93810.94
2018-02-08T06:18:31.399Z,93883.67
2018-02-08T06:20:09.445Z,93888.63
2018-02-08T06:21:48.296Z,93851.70
2018-02-08T06:23:25.071Z,93868.78
2018-02-08T06:25:01.721Z,93912.06
2018-02-08T06:26:38.277Z,93950.26
2018-02-08T06:28:14.696Z,93939.63
2018-02-08T06:29:54.107Z,93965.48
2018-02-08T06:35:54.520Z,93811.64
2018-02-08T06:37:31.527Z,93760.67
2018-02-08T06:39:07.897Z,93729.77
2018-02-08T06:40:44.251Z,93753.50
2018-02-08T06:42:20.920Z,93822.72
2018-02-08T06:43:57.766Z,93917.53
2018-02-08T06:45:34.128Z,93903.38
2018-02-08T06:49:02.863Z,94016.50
2018-02-08T06:55:47.934Z,93944.64
2018-02-08T06:57:32.024Z,93973.92
2018-02-08T06:59:08.585Z,94025.74
2018-02-08T07:00:45.765Z,94055.66
2018-02-08T07:02:22.333Z,93983.39
2018-02-08T07:03:59.339Z,93870.72
2018-02-08T07:05:35.866Z,93819.23
2018-02-08T07:07:13.069Z,93753.86
2018-02-08T07:08:55.130Z,93673.69
2018-02-08T07:10:36.077Z,93639.69
2018-02-08T07:12:19.525Z,93596.44
2018-02-08T07:17:30.822Z,93610.05
2018-02-08T07:20:52.492Z,93707.52
2018-02-08T07:22:28.895Z,93769.12
2018-02-08T07:24:05.518Z,93852.02
2018-02-08T07:25:43.082Z,93875.73
2018-02-08T07:27:19.584Z,93857.55
2018-02-08T07:28:57.620Z,93811.54
2018-02-08T07:30:34.289Z,93801.38
2018-02-08T07:32:11.093Z,93803.51
2018-02-08T07:33:47.561Z,93810.76
2018-02-08T07:35:24.152Z,93835.37
2018-02-08T07:37:02.598Z,93885.47
2018-02-08T07:38:39.734Z,93910.56
2018-02-08T07:40:16.337Z,93856.57
2018-02-08T07:41:52.832Z,93872.80
2018-02-08T07:43:29.310Z,93869.78
2018-02-08T07:45:07.959Z,93891.08
2018-02-08T07:46:44.493Z,93894.38
2018-02-08T07:48:21.681Z,93913.45
2018-02-08T07:49:58.642Z,93965.85
2018-02-08T07:51:35.643Z,94001.92
2018-02-08T07:53:12.372Z,94055.50
2018-02-08T07:54:48.973Z,94106.60
2018-02-08T07:56:27.018Z,94111.63
2018-02-08T07:58:03.856Z,94142.70
2018-02-08T07:59:40.636Z,94178.36
2018-02-08T08:01:17.108Z,94156.65
2018-02-08T08:02:53.647Z,94171.63
2018-02-08T08:04:31.141Z,94153.31
2018-02-08T08:06:07.617Z,94130.41
2018-02-08T08:07:44.870Z,94097.64
2018-02-08T08:09:21.502Z,94067.72
2018-02-08T08:10:58.485Z,94121.79
2018-02-08T08:12:35.183Z,94117.15
2018-02-08T08:14:11.949Z,94086.86
2018-02-08T08:15:48.411Z,94095.09
2018-02-08T08:17:26.616Z,94038.92
2018-02-08T08:19:16.112Z,93984.52
2018-02-08T08:20:55.516Z,93964.45
2018-02-08T08:22:32.027Z,94008.70
2018-02-08T08:24:08.934Z,94026.94
2018-02-08T08:25:45.405Z,93991.70
2018-02-08T08:27:21.799Z,93989.09
2018-02-08T08:28:58.228Z,94007.39
2018-02-08T08:30:35.140Z,93965.75
2018-02-08T08:32:11.636Z,93977.64
2018-02-08T08:33:48.032Z,93961.12
2018-02-08T08:35:25.283Z,93991.33
2018-02-08T08:37:02.258Z,94099.72
2018-02-08T08:38:39.456Z,94101.78
2018-02-08T08:40:16.841Z,94153.31
2018-02-08T08:41:53.374Z,94228.29
2018-02-08T08:43:32.599Z,94308.75
2018-02-08T08:45:10.017Z,94391.36
2018-02-08T08:46:49.003Z,94487.04
2018-02-08T08:48:25.507Z,94518.91
2018-02-08T08:50:02.099Z,94514.20
2018-02-08T08:51:39.369Z,94585.59
2018-02-08T08:53:15.906Z,94657.70
2018-02-08T08:54:53.409Z,94857.30
2018-02-08T08:56:30.243Z,95077.36
2018-02-08T08:58:06.698Z,95082.00
2018-02-08T08:59:43.484Z,94902.22
2018-02-08T09:01:20.062Z,94726.48
2018-02-08T09:02:57.631Z,94707.36
2018-02-08T09:04:34.337Z,94625.72
2018-02-08T09:06:11.140Z,94595.88
2018-02-08T09:07:48.078Z,94544.63
2018-02-08T09:09:24.890Z,94475.03
2018-02-08T09:11:01.412Z,94428.09
2018-02-08T09:12:37.982Z,94510.98
2018-02-08T09:14:14.477Z,94622.77
2018-02-08T09:15:52.598Z,94569.88
2018-02-08T09:17:29.267Z,94455.17
2018-02-08T09:19:07.052Z,94496.91
2018-02-08T09:20:43.633Z,94558.73
2018-02-08T09:22:21.443Z,94601.84
2018-02-08T09:23:57.838Z,94602.65
2018-02-08T09:25:34.274Z,94646.27
2018-02-08T09:27:11.607Z,94637.33
2018-02-08T09:28:49.464Z,94601.84
2018-02-08T09:30:25.917Z,94601.05
2018-02-08T09:32:02.912Z,94725.79
2018-02-08T09:33:39.345Z,94738.23
2018-02-08T09:35:15.986Z,94732.59
2018-02-08T09:36:52.381Z,94670.95
2018-02-08T09:38:29.865Z,94661.23
2018-02-08T09:40:07.569Z,94646.98
2018-02-08T09:41:45.042Z,94583.02
2018-02-08T09:43:22.231Z,94525.48
2018-02-08T09:45:00.155Z,94563.41
2018-02-08T09:46:36.704Z,94589.03
2018-02-08T09:48:13.517Z,94757.75
2018-02-08T09:49:54.088Z,94832.09
2018-02-08T09:51:30.789Z,94762.93
2018-02-08T09:53:07.216Z,94683.39
2018-02-08T09:54:43.976Z,94798.44
2018-02-08T09:56:20.487Z,94879.62
2018-02-08T09:57:57.007Z,95036.27
2018-02-08T09:59:33.580Z,95215.37
2018-02-08T10:01:10.532Z,95286.41
2018-02-08T10:02:47.017Z,95195.56
2018-02-08T10:04:24.364Z,95054.17
2018-02-08T10:06:00.970Z,94874.95
2018-02-08T10:07:38.136Z,94755.69
2018-02-08T10:09:15.274Z,94669.73
2018-02-08T10:10:51.768Z,94655.65
2018-02-08T10:12:28.249Z,94777.06
2018-02-08T10:14:06.083Z,94691.64
2018-02-08T10:15:42.627Z,94715.66
2018-02-08T10:17:19.044Z,94787.23
2018-02-08T10:18:55.504Z,94919.41
2018-02-08T10:20:32.199Z,95086.05
2018-02-08T10:22:09.254Z,95135.67
2018-02-08T10:23:46.248Z,94907.87
2018-02-08T10:25:25.836Z,94675.33
2018-02-08T10:27:03.648Z,94639.09
2018-02-08T10:28:40.081Z,94724.53
2018-02-08T10:30:17.692Z,94847.20
2018-02-08T10:31:54.194Z,94907.49
2018-02-08T10:33:31.086Z,95074.92
2018-02-08T10:35:07.452Z,95198.22
2018-02-08T10:36:44.033Z,95213.69
2018-02-08T10:40:00.667Z,95100.21
2018-02-08T10:41:37.134Z,94997.41
2018-02-08T10:43:13.597Z,94978.63
2018-02-08T10:44:50.382Z,94986.26
2018-02-08T10:46:27.638Z,95009.86
2018-02-08T10:48:05.565Z,95102.27
2018-02-08T10:49:41.859Z,95004.62
2018-02-08T10:51:18.684Z,94932.38
2018-02-08T10:52:55.092Z,94992.75
2018-02-08T10:54:35.364Z,95247.12
2018-02-08T10:56:11.840Z,95420.39
2018-02-08T10:57:52.783Z,95523.38
2018-02-08T11:09:13.279Z,95311.09
2018-02-08T11:10:49.801Z,95256.56
2018-02-08T11:12:26.309Z,95400.28
2018-02-08T11:14:03.671Z,95536.35
2018-02-08T11:15:40.920Z,95656.28
2018-02-08T11:17:17.774Z,95646.39
2018-02-08T11:18:54.477Z,95686.45
2018-02-08T11:24:06.464Z,95520.16
2018-02-08T11:25:42.708Z,95356.95
2018-02-08T11:27:20.178Z,95368.69
2018-02-08T11:28:57.761Z,95553.98
2018-02-08T11:30:34.799Z,95484.78
2018-02-08T11:32:11.435Z,95365.94
2018-02-08T11:33:47.847Z,95281.46
2018-02-08T11:35:24.301Z,95315.36
2018-02-08T11:37:01.399Z,95360.41
2018-02-08T11:38:38.860Z,95387.44
2018-02-08T11:40:15.263Z,95245.51
2018-02-08T11:43:24.111Z,95154.27
2018-02-08T11:45:00.966Z,95218.97
2018-02-08T11:46:40.917Z,95443.63
2018-02-08T11:48:18.255Z,95608.61
2018-02-08T11:49:54.865Z,95724.33
2018-02-08T11:51:31.523Z,95702.45
2018-02-08T11:53:08.033Z,95837.88
2018-02-08T11:54:45.763Z,95917.45
2018-02-08T11:56:22.218Z,96014.39
2018-02-08T11:58:00.030Z,96051.93
2018-02-08T11:59:37.118Z,95872.20
2018-02-08T12:01:14.442Z,95978.31
2018-02-08T12:02:51.168Z,96048.92
2018-02-08T12:04:27.878Z,96025.52
2018-02-08T12:06:04.642Z,95986.80
2018-02-08T12:07:41.619Z,95913.56
2018-02-08T12:09:18.815Z,95938.14
2018-02-08T12:10:55.276Z,96018.27
2018-02-08T12:12:32.473Z,96118.70
2018-02-08T12:14:09.273Z,96124.30
2018-02-08T12:15:45.703Z,96035.98
2018-02-08T12:17:22.182Z,96061.84
2018-02-08T12:18:58.656Z,96101.86
2018-02-08T12:20:35.468Z,96126.50
2018-02-08T12:22:11.898Z,96010.50
2018-02-08T12:23:48.351Z,95854.66
2018-02-08T12:25:25.506Z,95757.86
2018-02-08T12:27:05.277Z,95602.73
2018-02-08T12:28:41.906Z,95585.52
2018-02-08T12:30:18.670Z,95784.06
2018-02-08T12:31:56.062Z,95982.52
2018-02-08T12:33:32.780Z,96070.16
2018-02-08T12:35:10.065Z,95866.34
2018-02-08T12:36:46.920Z,95840.05
2018-02-08T12:38:23.580Z,95827.55
2018-02-08T12:40:03.457Z,95767.42
2018-02-08T12:41:39.891Z,95647.48
2018-02-08T12:43:16.488Z,95490.14
2018-02-08T12:44:52.844Z,95376.84
2018-02-08T12:46:29.967Z,95421.99
2018-02-08T12:48:07.211Z,95546.03
2018-02-08T12:49:46.826Z,95584.21
2018-02-08T12:51:28.487Z,95731.35
2018-02-08T12:53:06.094Z,95763.95
2018-02-08T12:54:42.556Z,95930.97
2018-02-08T12:56:19.062Z,96082.63
2018-02-08T12:57:55.554Z,96135.13
2018-02-08T12:59:32.441Z,96084.33
2018-02-08T13:01:09.095Z,96012.31
2018-02-08T13:02:46.403Z,95975.61
2018-02-08T13:04:22.843Z,96014.09
2018-02-08T13:05:59.595Z,96042.47
2018-02-08T13:07:36.732Z,95964.11
2018-02-08T13:09:13.663Z,96082.16
2018-02-08T13:10:50.155Z,96192.63
2018-02-08T13:12:27.689Z,96182.19
2018-02-08T13:14:04.254Z,96315.25
2018-02-08T13:15:40.986Z,96399.78
2018-02-08T13:17:17.481Z,96472.70
2018-02-08T13:18:54.430Z,96525.17
2018-02-08T13:20:30.796Z,96477.08
2018-02-08T13:22:07.272Z,96493.95
2018-02-08T13:23:43.832Z,96421.80
2018-02-08T13:25:20.606Z,96350.14
2018-02-08T13:26:57.043Z,96351.08
2018-02-08T13:28:33.605Z,96466.39
2018-02-08T13:30:10.142Z,96462.79
2018-02-08T13:31:48.436Z,96523.89
2018-02-08T13:33:24.814Z,96584.31
2018-02-08T13:35:01.390Z,96439.92
2018-02-08T13:36:37.843Z,96307.87
2018-02-08T13:38:14.347Z,96405.05
2018-02-08T13:39:50.911Z,96466.73
2018-02-08T13:41:28.325Z,96490.16
2018-02-08T13:43:05.039Z,96580.94
2018-02-08T13:44:42.369Z,96435.20
2018-02-08T13:46:19.423Z,96536.86
2018-02-08T13:47:57.531Z,96529.50
2018-02-08T13:49:34.688Z,96312.16
2018-02-08T13:51:12.829Z,96254.42
2018-02-08T13:52:49.585Z,96116.34
2018-02-08T13:54:26.177Z,95993.06
2018-02-08T13:56:02.870Z,96053.91
2018-02-08T13:57:40.565Z,96235.48
2018-02-08T13:59:17.103Z,96382.14
2018-02-08T14:00:53.745Z,96460.27
2018-02-08T14:02:30.377Z,96435.63
2018-02-08T14:04:08.777Z,96272.56
2018-02-08T14:05:45.690Z,96243.14
2018-02-08T14:07:22.325Z,96350.22
2018-02-08T14:08:59.520Z,96498.41
2018-02-08T14:10:36.969Z,96488.80
2018-02-08T14:12:13.573Z,96282.04
2018-02-08T14:13:50.266Z,96221.65
2018-02-08T14:15:28.270Z,96134.00
2018-02-08T14:17:05.162Z,95991.32
2018-02-08T14:18:41.753Z,95959.09
2018-02-08T14:20:18.313Z,95971.14
2018-02-08T14:21:55.726Z,95980.55
2018-02-08T14:23:33.212Z,95916.00
2018-02-08T14:25:10.708Z,95838.05
2018-02-08T14:26:47.975Z,95880.28
2018-02-08T14:28:24.238Z,96011.16
2018-02-08T14:30:03.406Z,96160.01
2018-02-08T14:31:39.937Z,96156.41
2018-02-08T14:33:17.232Z,96291.08
2018-02-08T14:34:53.734Z,96331.66
2018-02-08T14:36:31.082Z,96213.84
2018-02-08T14:38:07.440Z,96223.81
2018-02-08T14:39:43.845Z,96347.70
2018-02-08T14:41:20.289Z,96328.13
2018-02-08T14:42:57.603Z,96182.34
2018-02-08T14:44:34.056Z,96040.97
2018-02-08T14:46:10.839Z,96075.91
2018-02-08T14:47:47.409Z,96299.74
2018-02-08T14:49:25.638Z,96415.84
2018-02-08T14:51:02.387Z,96531.20
2018-02-08T14:52:38.979Z,96473.78
2018-02-08T14:54:16.232Z,96397.34
2018-02-08T14:55:53.202Z,96513.13
2018-02-08T14:57:29.655Z,96618.10
2018-02-08T14:59:06.100Z,96588.66
2018-02-08T15:00:42.756Z,96439.19
2018-02-08T15:02:20.159Z,96316.56
2018-02-08T15:03:56.875Z,96420.18
2018-02-08T15:05:33.556Z,96542.94
2018-02-08T15:07:10.823Z,96452.50
2018-02-08T15:08:47.274Z,96255.20
2018-02-08T15:10:30.240Z,96087.08
2018-02-08T15:12:07.542Z,96058.61
2018-02-08T15:13:43.900Z,95967.67
2018-02-08T15:16:49.192Z,96139.22
2018-02-08T15:18:31.436Z,96287.22
2018-02-08T15:20:09.095Z,96475.95
2018-02-08T15:21:46.188Z,96517.42
2018-02-08T15:23:22.772Z,96458.15
2018-02-08T15:25:04.952Z,96391.62
2018-02-08T15:26:41.505Z,96551.62
2018-02-08T15:28:18.291Z,96495.77
2018-02-08T15:29:54.767Z,96548.95
2018-02-08T15:31:31.223Z,96620.70
2018-02-08T15:33:07.661Z,96589.55
2018-02-08T15:34:44.936Z,96647.55
2018-02-08T15:36:21.691Z,96596.95
2018-02-08T15:37:58.424Z,96570.17
2018-02-08T15:39:35.614Z,96661.39
2018-02-08T15:41:12.640Z,96750.02
2018-02-08T15:42:49.075Z,96735.01
2018-02-08T15:44:25.846Z,96716.67
2018-02-08T15:46:03.573Z,96711.62
2018-02-08T15:47:40.985Z,96691.66
2018-02-08T15:49:18.276Z,96616.78
2018-02-08T15:50:54.908Z,96557.20
2018-02-08T15:52:40.344Z,96605.08
2018-02-08T15:54:17.007Z,96627.67
2018-02-08T15:55:53.498Z,96619.84
2018-02-08T15:57:31.232Z,96566.61
2018-02-08T15:59:08.973Z,96506.19
2018-02-08T16:00:46.249Z,96510.87
2018-02-08T16:02:22.776Z,96529.11
2018-02-08T16:03:59.968Z,96542.52
2018-02-08T16:05:36.557Z,96538.60
2018-02-08T16:07:13.653Z,96541.55
2018-02-08T16:08:50.197Z,96578.70
2018-02-08T16:10:27.550Z,96571.84
2018-02-08T16:12:10.465Z,96561.84
2018-02-08T16:14:08.429Z,96461.17
2018-02-08T16:15:45.204Z,96375.67
2018-02-08T16:17:23.004Z,96193.97
2018-02-08T16:19:00.507Z,96241.44
2018-02-08T16:20:37.218Z,96380.05
2018-02-08T16:22:14.023Z,96482.42
2018-02-08T16:23:50.570Z,96516.45
2018-02-08T16:25:27.097Z,96518.27
2018-02-08T16:27:03.874Z,96527.84
2018-02-08T16:28:41.352Z,96489.70
2018-02-08T16:30:18.573Z,96538.17
2018-02-08T16:31:55.337Z,96557.16
2018-02-08T16:33:32.921Z,96586.95
2018-02-08T16:35:09.544Z,96574.90
2018-02-08T16:36:46.017Z,96555.37
2018-02-08T16:38:22.438Z,96537.25
2018-02-08T16:39:59.794Z,96552.01
2018-02-08T16:41:38.173Z,96548.98
2018-02-08T16:43:15.362Z,96513.89
2018-02-08T16:44:51.953Z,96499.61
2018-02-08T16:46:28.750Z,96509.13
2018-02-08T16:48:05.327Z,96488.84
2018-02-08T16:49:43.377Z,96443.44
2018-02-08T16:51:20.036Z,96471.15
2018-02-08T16:52:56.895Z,96495.81
2018-02-08T16:54:33.304Z,96488.42
2018-02-08T16:56:09.961Z,96498.33
2018-02-08T16:57:46.424Z,96501.35
2018-02-08T16:59:23.210Z,96491.86
2018-02-08T17:00:59.761Z,96516.61
2018-02-08T17:02:36.162Z,96546.74
2018-02-08T17:04:12.798Z,96577.06
2018-02-08T17:05:49.511Z,96429.23
2018-02-08T17:07:26.088Z,96158.19
2018-02-08T17:09:03.563Z,96069.85
2018-02-08T17:10:41.211Z,95981.02
2018-02-08T17:12:19.694Z,96011.12
2018-02-08T17:13:57.311Z,96158.66
2018-02-08T17:15:34.644Z,96303.62
2018-02-08T17:17:11.312Z,96371.77
2018-02-08T17:18:48.097Z,96408.06
2018-02-08T17:20:24.687Z,96376.99
2018-02-08T17:22:01.961Z,96232.74
2018-02-08T17:23:38.472Z,96116.77
2018-02-08T17:25:16.067Z,96039.62
2018-02-08T17:26:53.035Z,96129.76
2018-02-08T17:28:35.225Z,96193.94
2018-02-08T17:30:13.261Z,96250.06
2018-02-08T17:31:50.869Z,96269.93
2018-02-08T17:33:27.484Z,96190.14
2018-02-08T17:35:04.717Z,95925.84
2018-02-08T17:36:41.354Z,95711.20
2018-02-08T17:38:19.202Z,95583.11
2018-02-08T17:39:57.912Z,95664.74
2018-02-08T17:41:34.526Z,95665.59
2018-02-08T17:43:11.447Z,95731.01
2018-02-08T17:44:48.993Z,95668.67
2018-02-08T17:46:26.426Z,95682.34
2018-02-08T17:48:03.970Z,95799.30
2018-02-08T17:49:41.319Z,95981.40
2018-02-08T17:51:18.134Z,96109.39
2018-02-08T17:52:55.339Z,96196.02
2018-02-08T17:54:31.702Z,96246.11
2018-02-08T17:56:08.391Z,96256.02
2018-02-08T17:57:45.304Z,96277.62
2018-02-08T17:59:22.679Z,96291.86
2018-02-08T18:00:59.226Z,96261.27
2018-02-08T18:02:35.674Z,96260.27
2018-02-08T18:04:12.670Z,96305.70
2018-02-08T18:05:49.508Z,96290.16
2018-02-08T18:07:26.309Z,96278.91
2018-02-08T18:09:03.012Z,96239.58
2018-02-08T18:10:39.905Z,96191.69
2018-02-08T18:12:17.780Z,96193.89
2018-02-08T18:13:55.370Z,96183.03
2018-02-08T18:15:32.137Z,96184.77
2018-02-08T18:17:08.939Z,96154.20
2018-02-08T18:18:45.424Z,96122.72
2018-02-08T18:20:27.152Z,96039.53
2018-02-08T18:22:06.736Z,95888.76
2018-02-08T18:23:43.484Z,95923.59
2018-02-08T18:25:20.025Z,95949.06
2018-02-08T18:26:56.849Z,96029.53
2018-02-08T18:28:34.592Z,96150.39
2018-02-08T18:30:13.439Z,96220.22
2018-02-08T18:31:50.782Z,96243.52
2018-02-08T18:33:28.527Z,96233.98
2018-02-08T18:36:45.916Z,96102.44
2018-02-08T18:38:22.550Z,96107.23
2018-02-08T18:39:59.070Z,96067.14
2018-02-08T18:41:35.856Z,96125.35
2018-02-08T18:43:12.543Z,96211.95
2018-02-08T18:44:49.163Z,96224.89
2018-02-08T18:46:27.299Z,96130.45
2018-02-08T18:48:04.366Z,95809.51
2018-02-08T18:49:42.014Z,95577.02
2018-02-08T18:51:20.016Z,95472.31
2018-02-08T18:52:56.567Z,95379.50
2018-02-08T18:54:33.646Z,95339.64
2018-02-08T18:56:10.035Z,95292.11
2018-02-08T18:57:46.470Z,95227.66
2018-02-08T18:59:22.951Z,95199.87
2018-02-08T19:01:00.518Z,95181.30
2018-02-08T19:02:37.113Z,95180.92
2018-02-08T19:04:14.360Z,95199.36
2018-02-08T19:05:50.718Z,95171.13
2018-02-08T19:07:27.309Z,95132.09
2018-02-08T19:09:03.822Z,95131.67
2018-02-08T19:10:40.279Z,95113.75
2018-02-08T19:12:16.887Z,95097.48
2018-02-08T19:13:53.840Z,95094.11
2018-02-08T19:15:30.305Z,95114.59
2018-02-08T19:17:07.536Z,95196.83
2018-02-08T19:18:44.079Z,95261.00
2018-02-08T19:20:21.061Z,95240.45
2018-02-08T19:21:57.515Z,95186.91
2018-02-08T19:23:34.959Z,95185.60
2018-02-08T19:25:13.178Z,95218.17
2018-02-08T19:26:50.113Z,95253.28
2018-02-08T19:28:26.696Z,95282.53
2018-02-08T19:30:05.973Z,95332.20
2018-02-08T19:31:42.461Z,95367.34
2018-02-08T19:33:19.416Z,95332.25
2018-02-08T19:34:56.056Z,95256.23
2018-02-08T19:36:34.207Z,95151.70
2018-02-08T19:38:10.720Z,95068.22
2018-02-08T19:39:48.149Z,95013.73
2018-02-08T19:41:24.605Z,94963.77
2018-02-08T19:43:01.139Z,94905.99
2018-02-08T19:44:37.737Z,94888.02
2018-02-08T19:46:14.991Z,94861.91
2018-02-08T19:47:51.561Z,94848.27
2018-02-08T19:49:28.321Z,94816.55
2018-02-08T19:51:05.700Z,94811.86
2018-02-08T19:52:42.765Z,94760.95
2018-02-08T19:54:19.366Z,94702.45
2018-02-08T19:55:55.878Z,94699.47
2018-02-08T19:57:32.389Z,94681.39
2018-02-08T19:59:09.400Z,94677.56
2018-02-08T20:00:46.193Z,94657.05
2018-02-08T20:02:22.587Z,94659.66
2018-02-08T20:03:59.096Z,94658.02
2018-02-08T20:05:35.926Z,94671.26
2018-02-08T20:07:12.601Z,94654.91
2018-02-08T20:08:49.503Z,94627.20
2018-02-08T20:10:26.320Z,94595.60
2018-02-08T20:12:50.733Z,94585.39
2018-02-08T20:14:31.450Z,94559.30
2018-02-08T20:16:09.152Z,94531.16
2018-02-08T20:17:46.986Z,94514.15
2018-02-08T20:19:23.537Z,94501.38
2018-02-08T20:21:00.782Z,94508.98
2018-02-08T20:22:37.250Z,94484.75
2018-02-08T20:24:13.995Z,94482.02
2018-02-08T20:25:50.690Z,94463.66
2018-02-08T20:27:27.106Z,94451.78
2018-02-08T20:29:04.534Z,94467.57
2018-02-08T20:30:47.838Z,94479.95
2018-02-08T20:32:24.430Z,94478.16
2018-02-08T20:34:02.976Z,94503.01
2018-02-08T20:35:45.109Z,94517.03
2018-02-08T20:37:22.275Z,94479.88
2018-02-08T20:38:58.993Z,94462.83
2018-02-08T20:40:36.362Z,94500.45
2018-02-08T20:42:16.976Z,94463.66
2018-02-08T20:43:56.638Z,94460.34
2018-02-08T20:45:33.782Z,94459.51
2018-02-08T20:47:11.211Z,94422.27
2018-02-08T20:48:47.856Z,94415.47
2018-02-08T20:50:34.149Z,94427.02
2018-02-08T20:52:10.936Z,94423.47
2018-02-08T20:53:47.626Z,94407.78
2018-02-08T20:55:23.956Z,94373.20
2018-02-08T20:57:01.068Z,94360.87
2018-02-08T20:58:37.643Z,94367.34
2018-02-08T21:00:16.250Z,94369.39
2018-02-08T21:01:52.882Z,94341.69
2018-02-08T21:03:30.394Z,94338.72
2018-02-08T21:05:06.877Z,94322.98
2018-02-08T21:06:43.417Z,94312.25
2018-02-08T21:08:19.961Z,94302.93
2018-02-08T21:09:57.501Z,94285.88
2018-02-08T21:11:34.253Z,94280.33
2018-02-08T21:13:11.708Z,94261.92
2018-02-08T21:14:48.176Z,94294.38
2018-02-08T21:16:24.953Z,94296.09
2018-02-08T21:18:01.422Z,94320.33
2018-02-08T21:19:38.188Z,94316.89
2018-02-08T21:21:15.716Z,94290.84
2018-02-08T21:22:53.109Z,94280.80
2018-02-08T21:24:31.332Z,94261.97
2018-02-08T21:26:07.809Z,94265.36
2018-02-08T21:27:44.290Z,94262.44
2018-02-08T21:29:21.076Z,94260.30